sensor_id;sensor_type;location;lat;lon;timestamp;P1;durP1;ratioP1;P2;durP2;ratioP2
56391;SDS011;42289;53.582;9.714;2022-12-29T00:01:27;9.05;;;5.80;;
56391;SDS011;42289;53.582;9.714;2022-12-29T00:03:53;9.20;;;5.95;;
56391;SDS011;42289;53.582;9.714;2022-12-29T00:06:20;8.77;;;5.65;;
56391;SDS011;42289;53.582;9.714;2022-12-29T00:08:46;12.02;;;5.97;;
56391;SDS011;42289;53.582;9.714;2022-12-29T00:11:13;11.68;;;6.00;;
56391;SDS011;42289;53.582;9.714;2022-12-29T00:13:41;9.95;;;6.00;;
56391;SDS011;42289;53.582;9.714;2022-12-29T00:16:28;9.82;;;6.25;;
56391;SDS011;42289;53.582;9.714;2022-12-29T00:18:55;10.40;;;5.60;;
56391;SDS011;42289;53.582;9.714;2022-12-29T00:21:22;9.75;;;6.30;;
56391;SDS011;42289;53.582;9.714;2022-12-29T00:24:09;8.65;;;5.72;;
56391;SDS011;42289;53.582;9.714;2022-12-29T00:26:56;9.55;;;6.15;;
56391;SDS011;42289;53.582;9.714;2022-12-29T00:29:42;8.68;;;6.18;;
56391;SDS011;42289;53.582;9.714;2022-12-29T00:32:27;11.57;;;6.40;;
56391;SDS011;42289;53.582;9.714;2022-12-29T00:35:12;10.13;;;6.88;;
56391;SDS011;42289;53.582;9.714;2022-12-29T00:37:46;8.23;;;5.70;;
56391;SDS011;42289;53.582;9.714;2022-12-29T00:40:31;9.35;;;6.68;;
56391;SDS011;42289;53.582;9.714;2022-12-29T00:43:15;10.20;;;5.85;;
56391;SDS011;42289;53.582;9.714;2022-12-29T00:45:59;8.63;;;6.18;;
56391;SDS011;42289;53.582;9.714;2022-12-29T00:48:27;9.75;;;6.57;;
56391;SDS011;42289;53.582;9.714;2022-12-29T00:51:11;10.02;;;6.60;;
56391;SDS011;42289;53.582;9.714;2022-12-29T00:53:37;8.80;;;6.53;;
56391;SDS011;42289;53.582;9.714;2022-12-29T00:56:04;9.20;;;6.15;;
56391;SDS011;42289;53.582;9.714;2022-12-29T00:58:30;8.13;;;5.68;;
56391;SDS011;42289;53.582;9.714;2022-12-29T01:01:00;9.48;;;5.75;;
56391;SDS011;42289;53.582;9.714;2022-12-29T01:03:29;9.38;;;5.82;;
56391;SDS011;42289;53.582;9.714;2022-12-29T01:05:55;8.00;;;5.75;;
56391;SDS011;42289;53.582;9.714;2022-12-29T01:08:22;8.43;;;5.80;;
56391;SDS011;42289;53.582;9.714;2022-12-29T01:10:57;8.52;;;5.95;;
56391;SDS011;42289;53.582;9.714;2022-12-29T01:13:23;9.05;;;5.97;;
56391;SDS011;42289;53.582;9.714;2022-12-29T01:15:49;9.63;;;5.95;;
56391;SDS011;42289;53.582;9.714;2022-12-29T01:18:16;9.45;;;5.90;;
56391;SDS011;42289;53.582;9.714;2022-12-29T01:20:44;8.65;;;5.82;;
56391;SDS011;42289;53.582;9.714;2022-12-29T01:23:10;8.73;;;5.70;;
56391;SDS011;42289;53.582;9.714;2022-12-29T01:25:36;9.55;;;5.93;;
56391;SDS011;42289;53.582;9.714;2022-12-29T01:28:03;8.23;;;5.90;;
56391;SDS011;42289;53.582;9.714;2022-12-29T01:30:30;8.75;;;5.70;;
56391;SDS011;42289;53.582;9.714;2022-12-29T01:32:56;7.68;;;5.43;;
56391;SDS011;42289;53.582;9.714;2022-12-29T01:35:23;9.02;;;5.90;;
56391;SDS011;42289;53.582;9.714;2022-12-29T01:37:51;9.88;;;6.40;;
56391;SDS011;42289;53.582;9.714;2022-12-29T01:40:17;9.43;;;6.93;;
56391;SDS011;42289;53.582;9.714;2022-12-29T01:42:44;9.88;;;6.45;;
56391;SDS011;42289;53.582;9.714;2022-12-29T01:45:11;8.93;;;6.40;;
56391;SDS011;42289;53.582;9.714;2022-12-29T01:47:39;9.38;;;6.60;;
56391;SDS011;42289;53.582;9.714;2022-12-29T01:50:10;8.25;;;6.28;;
56391;SDS011;42289;53.582;9.714;2022-12-29T01:52:42;9.02;;;6.50;;
56391;SDS011;42289;53.582;9.714;2022-12-29T01:55:14;8.63;;;6.07;;
56391;SDS011;42289;53.582;9.714;2022-12-29T01:57:43;9.23;;;6.57;;
56391;SDS011;42289;53.582;9.714;2022-12-29T02:00:15;8.90;;;6.63;;
56391;SDS011;42289;53.582;9.714;2022-12-29T02:02:42;11.18;;;7.25;;
56391;SDS011;42289;53.582;9.714;2022-12-29T02:05:14;10.32;;;7.15;;
56391;SDS011;42289;53.582;9.714;2022-12-29T02:07:44;13.60;;;6.90;;
56391;SDS011;42289;53.582;9.714;2022-12-29T02:10:12;12.23;;;7.05;;
56391;SDS011;42289;53.582;9.714;2022-12-29T02:12:41;9.60;;;7.13;;
56391;SDS011;42289;53.582;9.714;2022-12-29T02:15:08;10.05;;;7.47;;
56391;SDS011;42289;53.582;9.714;2022-12-29T02:17:49;11.30;;;7.45;;
56391;SDS011;42289;53.582;9.714;2022-12-29T02:23:47;12.02;;;7.50;;
56391;SDS011;42289;53.582;9.714;2022-12-29T02:26:38;11.10;;;7.25;;
56391;SDS011;42289;53.582;9.714;2022-12-29T02:29:32;12.73;;;7.75;;
56391;SDS011;42289;53.582;9.714;2022-12-29T02:32:17;10.15;;;7.18;;
56391;SDS011;42289;53.582;9.714;2022-12-29T02:34:52;10.23;;;7.18;;
56391;SDS011;42289;53.582;9.714;2022-12-29T02:37:25;14.18;;;7.50;;
56391;SDS011;42289;53.582;9.714;2022-12-29T02:39:59;9.98;;;6.78;;
56391;SDS011;42289;53.582;9.714;2022-12-29T02:42:33;11.85;;;6.65;;
56391;SDS011;42289;53.582;9.714;2022-12-29T02:45:05;9.30;;;6.38;;
56391;SDS011;42289;53.582;9.714;2022-12-29T02:47:40;9.40;;;6.78;;
56391;SDS011;42289;53.582;9.714;2022-12-29T02:50:15;10.50;;;6.95;;
56391;SDS011;42289;53.582;9.714;2022-12-29T02:52:49;9.13;;;6.22;;
56391;SDS011;42289;53.582;9.714;2022-12-29T02:55:18;8.75;;;6.18;;
56391;SDS011;42289;53.582;9.714;2022-12-29T02:57:44;8.88;;;6.30;;
56391;SDS011;42289;53.582;9.714;2022-12-29T03:00:12;8.77;;;6.20;;
56391;SDS011;42289;53.582;9.714;2022-12-29T03:05:39;8.32;;;5.80;;
56391;SDS011;42289;53.582;9.714;2022-12-29T03:08:18;10.85;;;6.18;;
56391;SDS011;42289;53.582;9.714;2022-12-29T03:10:55;9.63;;;5.78;;
56391;SDS011;42289;53.582;9.714;2022-12-29T03:13:28;9.20;;;5.80;;
56391;SDS011;42289;53.582;9.714;2022-12-29T03:16:20;7.75;;;5.55;;
56391;SDS011;42289;53.582;9.714;2022-12-29T03:18:57;7.47;;;5.60;;
56391;SDS011;42289;53.582;9.714;2022-12-29T03:21:30;8.65;;;5.32;;
56391;SDS011;42289;53.582;9.714;2022-12-29T03:24:18;7.32;;;5.18;;
56391;SDS011;42289;53.582;9.714;2022-12-29T03:26:46;11.40;;;5.97;;
56391;SDS011;42289;53.582;9.714;2022-12-29T03:29:14;8.48;;;5.70;;
56391;SDS011;42289;53.582;9.714;2022-12-29T03:31:44;7.10;;;5.30;;
56391;SDS011;42289;53.582;9.714;2022-12-29T03:34:14;8.57;;;5.75;;
56391;SDS011;42289;53.582;9.714;2022-12-29T03:36:44;7.30;;;5.10;;
56391;SDS011;42289;53.582;9.714;2022-12-29T03:39:18;9.80;;;5.70;;
56391;SDS011;42289;53.582;9.714;2022-12-29T03:41:49;7.43;;;5.25;;
56391;SDS011;42289;53.582;9.714;2022-12-29T03:44:21;6.43;;;4.75;;
56391;SDS011;42289;53.582;9.714;2022-12-29T03:46:56;8.07;;;5.57;;
56391;SDS011;42289;53.582;9.714;2022-12-29T03:49:24;7.88;;;5.18;;
56391;SDS011;42289;53.582;9.714;2022-12-29T03:51:51;7.38;;;5.32;;
56391;SDS011;42289;53.582;9.714;2022-12-29T03:54:17;7.85;;;4.90;;
56391;SDS011;42289;53.582;9.714;2022-12-29T03:56:44;8.48;;;4.88;;
56391;SDS011;42289;53.582;9.714;2022-12-29T03:59:10;6.88;;;4.90;;
56391;SDS011;42289;53.582;9.714;2022-12-29T04:01:36;6.65;;;4.78;;
56391;SDS011;42289;53.582;9.714;2022-12-29T04:04:03;6.45;;;4.82;;
56391;SDS011;42289;53.582;9.714;2022-12-29T04:06:32;7.50;;;5.30;;
56391;SDS011;42289;53.582;9.714;2022-12-29T04:08:59;9.73;;;5.40;;
56391;SDS011;42289;53.582;9.714;2022-12-29T04:11:25;6.63;;;4.57;;
56391;SDS011;42289;53.582;9.714;2022-12-29T04:13:51;6.78;;;4.65;;
56391;SDS011;42289;53.582;9.714;2022-12-29T04:16:18;6.13;;;4.72;;
56391;SDS011;42289;53.582;9.714;2022-12-29T04:18:44;5.47;;;4.35;;
56391;SDS011;42289;53.582;9.714;2022-12-29T04:21:11;6.13;;;4.50;;
56391;SDS011;42289;53.582;9.714;2022-12-29T04:23:38;6.10;;;3.80;;
56391;SDS011;42289;53.582;9.714;2022-12-29T04:26:04;5.10;;;4.00;;
56391;SDS011;42289;53.582;9.714;2022-12-29T04:28:32;5.55;;;4.05;;
56391;SDS011;42289;53.582;9.714;2022-12-29T04:30:59;4.50;;;3.25;;
56391;SDS011;42289;53.582;9.714;2022-12-29T04:33:25;4.20;;;3.20;;
56391;SDS011;42289;53.582;9.714;2022-12-29T04:35:52;4.53;;;3.40;;
56391;SDS011;42289;53.582;9.714;2022-12-29T04:38:19;5.50;;;3.17;;
56391;SDS011;42289;53.582;9.714;2022-12-29T04:40:47;4.22;;;3.17;;
56391;SDS011;42289;53.582;9.714;2022-12-29T04:43:14;4.05;;;2.95;;
56391;SDS011;42289;53.582;9.714;2022-12-29T04:45:42;5.07;;;3.28;;
56391;SDS011;42289;53.582;9.714;2022-12-29T04:48:09;5.05;;;3.35;;
56391;SDS011;42289;53.582;9.714;2022-12-29T04:50:36;5.68;;;3.33;;
56391;SDS011;42289;53.582;9.714;2022-12-29T04:53:02;4.60;;;3.08;;
56391;SDS011;42289;53.582;9.714;2022-12-29T04:55:29;5.95;;;2.75;;
56391;SDS011;42289;53.582;9.714;2022-12-29T04:57:57;5.55;;;3.30;;
56391;SDS011;42289;53.582;9.714;2022-12-29T05:00:23;5.97;;;3.17;;
56391;SDS011;42289;53.582;9.714;2022-12-29T05:02:49;4.20;;;3.08;;
56391;SDS011;42289;53.582;9.714;2022-12-29T05:05:17;5.68;;;3.33;;
56391;SDS011;42289;53.582;9.714;2022-12-29T05:07:43;5.07;;;3.20;;
56391;SDS011;42289;53.582;9.714;2022-12-29T05:10:10;4.03;;;2.97;;
56391;SDS011;42289;53.582;9.714;2022-12-29T05:12:37;4.53;;;2.90;;
56391;SDS011;42289;53.582;9.714;2022-12-29T05:15:06;3.80;;;2.50;;
56391;SDS011;42289;53.582;9.714;2022-12-29T05:17:34;3.40;;;2.45;;
56391;SDS011;42289;53.582;9.714;2022-12-29T05:20:00;3.95;;;2.85;;
56391;SDS011;42289;53.582;9.714;2022-12-29T05:22:27;4.45;;;3.03;;
56391;SDS011;42289;53.582;9.714;2022-12-29T05:24:53;4.88;;;3.30;;
56391;SDS011;42289;53.582;9.714;2022-12-29T05:27:19;4.70;;;3.38;;
56391;SDS011;42289;53.582;9.714;2022-12-29T05:29:46;5.80;;;3.88;;
56391;SDS011;42289;53.582;9.714;2022-12-29T05:32:14;5.30;;;3.88;;
56391;SDS011;42289;53.582;9.714;2022-12-29T05:34:40;5.68;;;3.85;;
56391;SDS011;42289;53.582;9.714;2022-12-29T05:37:07;5.55;;;3.97;;
56391;SDS011;42289;53.582;9.714;2022-12-29T05:39:33;5.07;;;3.58;;
56391;SDS011;42289;53.582;9.714;2022-12-29T05:42:00;5.57;;;3.90;;
56391;SDS011;42289;53.582;9.714;2022-12-29T05:44:26;6.07;;;3.90;;
56391;SDS011;42289;53.582;9.714;2022-12-29T05:46:52;7.22;;;3.83;;
56391;SDS011;42289;53.582;9.714;2022-12-29T05:49:20;10.15;;;5.43;;
56391;SDS011;42289;53.582;9.714;2022-12-29T05:51:47;6.55;;;4.50;;
56391;SDS011;42289;53.582;9.714;2022-12-29T05:54:13;5.60;;;3.97;;
56391;SDS011;42289;53.582;9.714;2022-12-29T05:56:39;5.20;;;3.70;;
56391;SDS011;42289;53.582;9.714;2022-12-29T05:59:06;5.30;;;3.65;;
56391;SDS011;42289;53.582;9.714;2022-12-29T06:01:32;5.13;;;3.22;;
56391;SDS011;42289;53.582;9.714;2022-12-29T06:03:59;5.00;;;3.28;;
56391;SDS011;42289;53.582;9.714;2022-12-29T06:06:27;4.68;;;3.30;;
56391;SDS011;42289;53.582;9.714;2022-12-29T06:08:53;4.63;;;3.10;;
56391;SDS011;42289;53.582;9.714;2022-12-29T06:11:20;4.43;;;2.92;;
56391;SDS011;42289;53.582;9.714;2022-12-29T06:13:46;4.57;;;2.88;;
56391;SDS011;42289;53.582;9.714;2022-12-29T06:16:13;4.22;;;2.70;;
56391;SDS011;42289;53.582;9.714;2022-12-29T06:18:39;5.65;;;2.80;;
56391;SDS011;42289;53.582;9.714;2022-12-29T06:21:05;5.38;;;2.88;;
56391;SDS011;42289;53.582;9.714;2022-12-29T06:23:34;4.50;;;3.03;;
56391;SDS011;42289;53.582;9.714;2022-12-29T06:26:00;3.83;;;2.67;;
56391;SDS011;42289;53.582;9.714;2022-12-29T06:28:27;4.70;;;2.70;;
56391;SDS011;42289;53.582;9.714;2022-12-29T06:30:53;5.65;;;2.92;;
56391;SDS011;42289;53.582;9.714;2022-12-29T06:33:20;4.15;;;2.65;;
56391;SDS011;42289;53.582;9.714;2022-12-29T06:35:46;4.13;;;2.85;;
56391;SDS011;42289;53.582;9.714;2022-12-29T06:38:13;5.47;;;2.88;;
56391;SDS011;42289;53.582;9.714;2022-12-29T06:40:41;5.10;;;2.85;;
56391;SDS011;42289;53.582;9.714;2022-12-29T06:43:09;4.63;;;2.80;;
56391;SDS011;42289;53.582;9.714;2022-12-29T06:45:37;3.88;;;2.67;;
56391;SDS011;42289;53.582;9.714;2022-12-29T06:48:04;4.57;;;2.92;;
56391;SDS011;42289;53.582;9.714;2022-12-29T06:50:31;4.10;;;2.63;;
56391;SDS011;42289;53.582;9.714;2022-12-29T06:52:57;4.93;;;2.97;;
56391;SDS011;42289;53.582;9.714;2022-12-29T06:55:23;4.85;;;2.90;;
56391;SDS011;42289;53.582;9.714;2022-12-29T06:57:51;3.75;;;2.53;;
56391;SDS011;42289;53.582;9.714;2022-12-29T07:00:20;3.50;;;2.47;;
56391;SDS011;42289;53.582;9.714;2022-12-29T07:02:46;4.38;;;2.60;;
56391;SDS011;42289;53.582;9.714;2022-12-29T07:05:13;4.32;;;2.85;;
56391;SDS011;42289;53.582;9.714;2022-12-29T07:07:39;4.20;;;2.60;;
56391;SDS011;42289;53.582;9.714;2022-12-29T07:10:06;5.80;;;2.75;;
56391;SDS011;42289;53.582;9.714;2022-12-29T07:12:33;5.13;;;2.50;;
56391;SDS011;42289;53.582;9.714;2022-12-29T07:15:00;4.43;;;2.83;;
56391;SDS011;42289;53.582;9.714;2022-12-29T07:17:27;4.40;;;2.90;;
56391;SDS011;42289;53.582;9.714;2022-12-29T07:19:53;3.53;;;2.50;;
56391;SDS011;42289;53.582;9.714;2022-12-29T07:22:19;3.97;;;2.75;;
56391;SDS011;42289;53.582;9.714;2022-12-29T07:24:46;6.32;;;2.60;;
56391;SDS011;42289;53.582;9.714;2022-12-29T07:27:12;3.92;;;2.70;;
56391;SDS011;42289;53.582;9.714;2022-12-29T07:29:39;5.63;;;2.47;;
56391;SDS011;42289;53.582;9.714;2022-12-29T07:32:07;3.95;;;2.65;;
56391;SDS011;42289;53.582;9.714;2022-12-29T07:34:34;4.55;;;2.67;;
56391;SDS011;42289;53.582;9.714;2022-12-29T07:37:00;5.70;;;2.90;;
56391;SDS011;42289;53.582;9.714;2022-12-29T07:39:26;4.05;;;2.60;;
56391;SDS011;42289;53.582;9.714;2022-12-29T07:41:53;4.80;;;2.42;;
56391;SDS011;42289;53.582;9.714;2022-12-29T07:44:19;5.60;;;2.63;;
56391;SDS011;42289;53.582;9.714;2022-12-29T07:46:46;4.15;;;2.40;;
56391;SDS011;42289;53.582;9.714;2022-12-29T07:49:13;5.70;;;2.33;;
56391;SDS011;42289;53.582;9.714;2022-12-29T07:51:40;4.18;;;2.10;;
56391;SDS011;42289;53.582;9.714;2022-12-29T07:54:06;5.22;;;2.20;;
56391;SDS011;42289;53.582;9.714;2022-12-29T07:56:33;4.50;;;2.10;;
56391;SDS011;42289;53.582;9.714;2022-12-29T07:58:59;4.82;;;2.35;;
56391;SDS011;42289;53.582;9.714;2022-12-29T08:01:25;5.20;;;2.28;;
56391;SDS011;42289;53.582;9.714;2022-12-29T08:03:52;6.53;;;2.60;;
56391;SDS011;42289;53.582;9.714;2022-12-29T08:06:20;3.78;;;2.25;;
56391;SDS011;42289;53.582;9.714;2022-12-29T08:08:47;3.83;;;2.28;;
56391;SDS011;42289;53.582;9.714;2022-12-29T08:11:13;4.07;;;2.40;;
56391;SDS011;42289;53.582;9.714;2022-12-29T08:13:40;4.13;;;2.38;;
56391;SDS011;42289;53.582;9.714;2022-12-29T08:16:06;4.57;;;2.47;;
56391;SDS011;42289;53.582;9.714;2022-12-29T08:18:32;6.65;;;2.38;;
56391;SDS011;42289;53.582;9.714;2022-12-29T08:21:00;5.57;;;2.80;;
56391;SDS011;42289;53.582;9.714;2022-12-29T08:23:29;3.85;;;2.30;;
56391;SDS011;42289;53.582;9.714;2022-12-29T08:25:58;3.67;;;1.77;;
56391;SDS011;42289;53.582;9.714;2022-12-29T08:28:25;3.65;;;1.90;;
56391;SDS011;42289;53.582;9.714;2022-12-29T08:30:52;2.92;;;1.60;;
56391;SDS011;42289;53.582;9.714;2022-12-29T08:33:19;3.95;;;1.70;;
56391;SDS011;42289;53.582;9.714;2022-12-29T08:35:46;3.35;;;1.98;;
56391;SDS011;42289;53.582;9.714;2022-12-29T08:38:12;3.70;;;2.00;;
56391;SDS011;42289;53.582;9.714;2022-12-29T08:40:40;5.50;;;2.15;;
56391;SDS011;42289;53.582;9.714;2022-12-29T08:43:07;3.35;;;2.03;;
56391;SDS011;42289;53.582;9.714;2022-12-29T08:45:33;5.57;;;2.20;;
56391;SDS011;42289;53.582;9.714;2022-12-29T08:47:59;3.92;;;2.10;;
56391;SDS011;42289;53.582;9.714;2022-12-29T08:50:26;3.95;;;1.85;;
56391;SDS011;42289;53.582;9.714;2022-12-29T08:52:52;5.00;;;2.00;;
56391;SDS011;42289;53.582;9.714;2022-12-29T08:55:19;2.97;;;1.80;;
56391;SDS011;42289;53.582;9.714;2022-12-29T08:57:46;4.20;;;1.98;;
56391;SDS011;42289;53.582;9.714;2022-12-29T09:00:13;4.97;;;1.80;;
56391;SDS011;42289;53.582;9.714;2022-12-29T09:02:40;6.18;;;1.80;;
56391;SDS011;42289;53.582;9.714;2022-12-29T09:05:07;3.72;;;1.60;;
56391;SDS011;42289;53.582;9.714;2022-12-29T09:07:34;3.85;;;1.50;;
56391;SDS011;42289;53.582;9.714;2022-12-29T09:10:01;4.03;;;1.42;;
56391;SDS011;42289;53.582;9.714;2022-12-29T09:12:27;6.22;;;1.25;;
56391;SDS011;42289;53.582;9.714;2022-12-29T09:14:55;5.75;;;1.55;;
56391;SDS011;42289;53.582;9.714;2022-12-29T09:17:21;4.30;;;1.25;;
56391;SDS011;42289;53.582;9.714;2022-12-29T09:20:05;6.93;;;1.42;;
56391;SDS011;42289;53.582;9.714;2022-12-29T09:22:33;5.07;;;1.63;;
56391;SDS011;42289;53.582;9.714;2022-12-29T09:25:00;4.97;;;1.70;;
56391;SDS011;42289;53.582;9.714;2022-12-29T09:27:26;6.53;;;1.20;;
56391;SDS011;42289;53.582;9.714;2022-12-29T09:29:53;3.85;;;1.27;;
56391;SDS011;42289;53.582;9.714;2022-12-29T09:32:20;4.35;;;1.67;;
56391;SDS011;42289;53.582;9.714;2022-12-29T09:34:47;4.72;;;1.73;;
56391;SDS011;42289;53.582;9.714;2022-12-29T09:37:13;6.13;;;1.52;;
56391;SDS011;42289;53.582;9.714;2022-12-29T09:39:40;6.65;;;1.30;;
56391;SDS011;42289;53.582;9.714;2022-12-29T09:42:07;6.13;;;1.77;;
56391;SDS011;42289;53.582;9.714;2022-12-29T09:44:44;7.85;;;1.65;;
56391;SDS011;42289;53.582;9.714;2022-12-29T09:47:18;4.55;;;1.35;;
56391;SDS011;42289;53.582;9.714;2022-12-29T09:49:47;6.97;;;1.40;;
56391;SDS011;42289;53.582;9.714;2022-12-29T09:52:20;5.70;;;1.50;;
56391;SDS011;42289;53.582;9.714;2022-12-29T09:54:51;6.60;;;2.15;;
56391;SDS011;42289;53.582;9.714;2022-12-29T09:57:23;6.50;;;1.60;;
56391;SDS011;42289;53.582;9.714;2022-12-29T09:59:53;6.78;;;1.25;;
56391;SDS011;42289;53.582;9.714;2022-12-29T10:02:27;4.07;;;1.13;;
56391;SDS011;42289;53.582;9.714;2022-12-29T10:04:58;5.68;;;2.10;;
56391;SDS011;42289;53.582;9.714;2022-12-29T10:07:27;8.43;;;1.70;;
56391;SDS011;42289;53.582;9.714;2022-12-29T10:10:03;5.05;;;1.48;;
56391;SDS011;42289;53.582;9.714;2022-12-29T10:12:44;7.65;;;1.80;;
56391;SDS011;42289;53.582;9.714;2022-12-29T10:15:25;5.68;;;1.58;;
56391;SDS011;42289;53.582;9.714;2022-12-29T10:20:45;6.85;;;1.70;;
56391;SDS011;42289;53.582;9.714;2022-12-29T10:23:22;6.13;;;1.52;;
56391;SDS011;42289;53.582;9.714;2022-12-29T10:25:53;5.20;;;1.33;;
56391;SDS011;42289;53.582;9.714;2022-12-29T10:28:22;5.38;;;1.52;;
56391;SDS011;42289;53.582;9.714;2022-12-29T10:30:51;9.32;;;1.77;;
56391;SDS011;42289;53.582;9.714;2022-12-29T10:33:21;7.30;;;1.50;;
56391;SDS011;42289;53.582;9.714;2022-12-29T10:35:51;6.57;;;1.65;;
56391;SDS011;42289;53.582;9.714;2022-12-29T10:38:21;6.43;;;2.10;;
56391;SDS011;42289;53.582;9.714;2022-12-29T10:40:51;7.35;;;1.40;;
56391;SDS011;42289;53.582;9.714;2022-12-29T10:43:25;11.00;;;1.60;;
56391;SDS011;42289;53.582;9.714;2022-12-29T10:45:52;8.38;;;1.50;;
56391;SDS011;42289;53.582;9.714;2022-12-29T10:48:24;6.13;;;1.50;;
56391;SDS011;42289;53.582;9.714;2022-12-29T10:50:53;8.52;;;1.38;;
56391;SDS011;42289;53.582;9.714;2022-12-29T10:53:23;5.82;;;1.30;;
56391;SDS011;42289;53.582;9.714;2022-12-29T10:55:53;7.03;;;1.60;;
56391;SDS011;42289;53.582;9.714;2022-12-29T10:58:21;6.00;;;1.50;;
56391;SDS011;42289;53.582;9.714;2022-12-29T11:00:49;7.93;;;1.38;;
56391;SDS011;42289;53.582;9.714;2022-12-29T11:06:13;6.57;;;1.40;;
56391;SDS011;42289;53.582;9.714;2022-12-29T11:08:46;5.82;;;1.40;;
56391;SDS011;42289;53.582;9.714;2022-12-29T11:13:49;7.35;;;1.23;;
56391;SDS011;42289;53.582;9.714;2022-12-29T11:16:23;5.32;;;1.05;;
56391;SDS011;42289;53.582;9.714;2022-12-29T11:18:57;10.80;;;1.20;;
56391;SDS011;42289;53.582;9.714;2022-12-29T11:21:25;6.53;;;1.58;;
56391;SDS011;42289;53.582;9.714;2022-12-29T11:23:57;5.57;;;1.05;;
56391;SDS011;42289;53.582;9.714;2022-12-29T11:26:25;6.60;;;1.17;;
56391;SDS011;42289;53.582;9.714;2022-12-29T11:31:43;5.43;;;1.23;;
56391;SDS011;42289;53.582;9.714;2022-12-29T11:34:17;6.95;;;1.30;;
56391;SDS011;42289;53.582;9.714;2022-12-29T11:36:45;4.53;;;1.38;;
56391;SDS011;42289;53.582;9.714;2022-12-29T11:39:22;6.03;;;1.05;;
56391;SDS011;42289;53.582;9.714;2022-12-29T11:41:53;5.55;;;1.00;;
56391;SDS011;42289;53.582;9.714;2022-12-29T11:44:20;4.18;;;1.00;;
56391;SDS011;42289;53.582;9.714;2022-12-29T11:46:48;6.00;;;1.10;;
56391;SDS011;42289;53.582;9.714;2022-12-29T11:49:20;3.38;;;1.00;;
56391;SDS011;42289;53.582;9.714;2022-12-29T11:51:49;5.88;;;1.20;;
56391;SDS011;42289;53.582;9.714;2022-12-29T11:54:17;4.05;;;1.00;;
56391;SDS011;42289;53.582;9.714;2022-12-29T11:56:48;4.45;;;0.90;;
56391;SDS011;42289;53.582;9.714;2022-12-29T12:02:20;4.77;;;0.87;;
56391;SDS011;42289;53.582;9.714;2022-12-29T12:04:56;7.03;;;1.15;;
56391;SDS011;42289;53.582;9.714;2022-12-29T12:07:33;5.47;;;1.15;;
56391;SDS011;42289;53.582;9.714;2022-12-29T12:10:04;5.60;;;1.15;;
56391;SDS011;42289;53.582;9.714;2022-12-29T12:12:37;5.88;;;1.70;;
56391;SDS011;42289;53.582;9.714;2022-12-29T12:15:08;8.65;;;1.75;;
56391;SDS011;42289;53.582;9.714;2022-12-29T12:17:46;6.63;;;1.17;;
56391;SDS011;42289;53.582;9.714;2022-12-29T12:20:19;4.55;;;0.93;;
56391;SDS011;42289;53.582;9.714;2022-12-29T12:22:51;7.90;;;1.10;;
56391;SDS011;42289;53.582;9.714;2022-12-29T12:25:26;5.90;;;1.20;;
56391;SDS011;42289;53.582;9.714;2022-12-29T12:27:58;9.40;;;1.20;;
56391;SDS011;42289;53.582;9.714;2022-12-29T12:30:33;7.47;;;1.10;;
56391;SDS011;42289;53.582;9.714;2022-12-29T12:33:06;5.03;;;1.23;;
56391;SDS011;42289;53.582;9.714;2022-12-29T12:35:46;4.93;;;1.02;;
56391;SDS011;42289;53.582;9.714;2022-12-29T12:38:25;4.97;;;1.45;;
56391;SDS011;42289;53.582;9.714;2022-12-29T12:41:05;6.20;;;1.90;;
56391;SDS011;42289;53.582;9.714;2022-12-29T12:43:37;8.50;;;1.30;;
56391;SDS011;42289;53.582;9.714;2022-12-29T12:46:10;7.18;;;1.15;;
56391;SDS011;42289;53.582;9.714;2022-12-29T12:48:54;6.05;;;1.25;;
56391;SDS011;42289;53.582;9.714;2022-12-29T12:51:42;5.88;;;1.27;;
56391;SDS011;42289;53.582;9.714;2022-12-29T12:54:23;6.85;;;1.15;;
56391;SDS011;42289;53.582;9.714;2022-12-29T12:59:39;7.45;;;1.45;;
56391;SDS011;42289;53.582;9.714;2022-12-29T13:02:26;6.97;;;1.40;;
56391;SDS011;42289;53.582;9.714;2022-12-29T13:05:21;9.13;;;1.50;;
56391;SDS011;42289;53.582;9.714;2022-12-29T13:07:59;8.35;;;1.40;;
56391;SDS011;42289;53.582;9.714;2022-12-29T13:10:46;8.65;;;1.60;;
56391;SDS011;42289;53.582;9.714;2022-12-29T13:13:34;6.80;;;1.90;;
56391;SDS011;42289;53.582;9.714;2022-12-29T13:16:13;7.80;;;1.55;;
56391;SDS011;42289;53.582;9.714;2022-12-29T13:18:48;7.85;;;1.52;;
56391;SDS011;42289;53.582;9.714;2022-12-29T13:21:25;6.47;;;1.85;;
56391;SDS011;42289;53.582;9.714;2022-12-29T13:24:02;8.90;;;1.70;;
56391;SDS011;42289;53.582;9.714;2022-12-29T13:26:39;8.57;;;1.73;;
56391;SDS011;42289;53.582;9.714;2022-12-29T13:29:13;9.82;;;1.70;;
56391;SDS011;42289;53.582;9.714;2022-12-29T13:31:46;6.53;;;1.45;;
56391;SDS011;42289;53.582;9.714;2022-12-29T13:36:49;10.15;;;1.83;;
56391;SDS011;42289;53.582;9.714;2022-12-29T13:39:21;6.65;;;1.50;;
56391;SDS011;42289;53.582;9.714;2022-12-29T13:41:52;6.63;;;1.57;;
56391;SDS011;42289;53.582;9.714;2022-12-29T13:44:21;9.55;;;1.95;;
56391;SDS011;42289;53.582;9.714;2022-12-29T13:46:51;18.63;;;1.65;;
56391;SDS011;42289;53.582;9.714;2022-12-29T13:49:21;6.35;;;1.23;;
56391;SDS011;42289;53.582;9.714;2022-12-29T13:51:50;5.13;;;0.93;;
56391;SDS011;42289;53.582;9.714;2022-12-29T13:54:25;5.65;;;1.30;;
56391;SDS011;42289;53.582;9.714;2022-12-29T13:57:00;4.50;;;0.95;;
56391;SDS011;42289;53.582;9.714;2022-12-29T13:59:36;4.82;;;1.20;;
56391;SDS011;42289;53.582;9.714;2022-12-29T14:02:11;5.90;;;0.95;;
56391;SDS011;42289;53.582;9.714;2022-12-29T14:04:57;6.05;;;1.10;;
56391;SDS011;42289;53.582;9.714;2022-12-29T14:07:25;4.45;;;0.90;;
56391;SDS011;42289;53.582;9.714;2022-12-29T14:09:53;8.98;;;1.20;;
56391;SDS011;42289;53.582;9.714;2022-12-29T14:12:24;7.03;;;1.23;;
56391;SDS011;42289;53.582;9.714;2022-12-29T14:15:14;6.88;;;1.30;;
56391;SDS011;42289;53.582;9.714;2022-12-29T14:17:59;5.70;;;1.20;;
56391;SDS011;42289;53.582;9.714;2022-12-29T14:20:37;6.25;;;1.10;;
56391;SDS011;42289;53.582;9.714;2022-12-29T14:23:15;7.90;;;1.30;;
56391;SDS011;42289;53.582;9.714;2022-12-29T14:26:09;6.43;;;1.00;;
56391;SDS011;42289;53.582;9.714;2022-12-29T14:28:37;7.80;;;1.13;;
56391;SDS011;42289;53.582;9.714;2022-12-29T14:31:05;7.72;;;1.10;;
56391;SDS011;42289;53.582;9.714;2022-12-29T14:36:55;5.13;;;1.00;;
56391;SDS011;42289;53.582;9.714;2022-12-29T14:39:27;6.25;;;1.17;;
56391;SDS011;42289;53.582;9.714;2022-12-29T14:42:00;9.23;;;1.20;;
56391;SDS011;42289;53.582;9.714;2022-12-29T14:44:29;6.97;;;1.50;;
56391;SDS011;42289;53.582;9.714;2022-12-29T14:46:57;8.85;;;1.30;;
56391;SDS011;42289;53.582;9.714;2022-12-29T14:49:27;7.65;;;1.40;;
56391;SDS011;42289;53.582;9.714;2022-12-29T14:52:04;7.70;;;1.40;;
56391;SDS011;42289;53.582;9.714;2022-12-29T14:54:43;9.05;;;1.25;;
56391;SDS011;42289;53.582;9.714;2022-12-29T14:57:18;8.73;;;1.30;;
56391;SDS011;42289;53.582;9.714;2022-12-29T14:59:47;11.05;;;1.80;;
56391;SDS011;42289;53.582;9.714;2022-12-29T15:02:20;7.10;;;1.73;;
56391;SDS011;42289;53.582;9.714;2022-12-29T15:04:49;8.30;;;1.58;;
56391;SDS011;42289;53.582;9.714;2022-12-29T15:07:17;6.40;;;1.65;;
56391;SDS011;42289;53.582;9.714;2022-12-29T15:09:46;11.57;;;1.58;;
56391;SDS011;42289;53.582;9.714;2022-12-29T15:12:20;3.53;;;1.20;;
56391;SDS011;42289;53.582;9.714;2022-12-29T15:14:55;8.23;;;1.77;;
56391;SDS011;42289;53.582;9.714;2022-12-29T15:17:23;5.85;;;1.50;;
56391;SDS011;42289;53.582;9.714;2022-12-29T15:19:51;8.32;;;1.67;;
56391;SDS011;42289;53.582;9.714;2022-12-29T15:22:18;6.85;;;1.50;;
56391;SDS011;42289;53.582;9.714;2022-12-29T15:24:45;12.30;;;1.88;;
56391;SDS011;42289;53.582;9.714;2022-12-29T15:27:13;7.45;;;1.50;;
56391;SDS011;42289;53.582;9.714;2022-12-29T15:29:43;12.00;;;1.80;;
56391;SDS011;42289;53.582;9.714;2022-12-29T15:32:19;7.75;;;2.00;;
56391;SDS011;42289;53.582;9.714;2022-12-29T15:34:48;10.15;;;1.98;;